createdAt,value
2023-03-23T15:58:29.466Z,46.49
2023-03-23T16:01:14.427Z,46.28
2023-03-23T16:04:05.368Z,45.74
2023-03-23T16:07:00.374Z,45.65
2023-03-23T16:09:52.356Z,45.82
2023-03-23T16:12:27.499Z,46.02
2023-03-23T16:15:16.372Z,46.22
2023-03-23T16:17:58.386Z,46.82
2023-03-23T16:20:46.364Z,47.06
2023-03-23T16:23:28.342Z,47.16
2023-03-23T16:26:23.387Z,47.74
2023-03-23T16:29:39.993Z,47.85
2023-03-23T16:32:20.361Z,48.18
2023-03-23T16:35:15.363Z,48.49
2023-03-23T16:38:08.406Z,48.47
2023-03-23T16:40:44.782Z,48.55
2023-03-23T16:43:32.360Z,48.79
2023-03-23T16:46:07.647Z,49.09
2023-03-23T16:48:55.356Z,49.19
2023-03-23T16:51:37.352Z,49.28
2023-03-23T16:54:32.354Z,49.52
2023-03-23T16:57:21.332Z,49.53
2023-03-23T16:59:58.414Z,49.51
2023-03-23T17:02:49.481Z,49.41
2023-03-23T17:05:33.491Z,49.82
2023-03-23T17:08:15.344Z,49.71
2023-03-23T17:11:03.356Z,49.65
2023-03-23T17:13:38.058Z,49.83
2023-03-23T17:16:26.561Z,49.57
2023-03-23T17:19:08.348Z,49.62
2023-03-23T17:21:49.533Z,50.00
2023-03-23T17:24:30.397Z,50.39
2023-03-23T17:27:25.339Z,51.13
2023-03-23T17:30:14.340Z,51.68
2023-03-23T17:32:49.299Z,51.31
2023-03-23T17:35:37.352Z,50.65
2023-03-23T17:38:11.594Z,50.23
2023-03-23T17:41:06.357Z,49.49
2023-03-23T17:43:42.725Z,49.90
2023-03-23T17:46:31.579Z,49.71
2023-03-23T17:49:13.347Z,49.83
2023-03-23T17:52:08.360Z,49.62
2023-03-23T17:54:56.333Z,49.39
2023-03-23T17:57:30.499Z,49.22
2023-03-23T18:00:19.534Z,49.25
2023-03-23T18:02:58.310Z,49.06
2023-03-23T18:05:47.606Z,48.81
2023-03-23T18:08:22.475Z,48.50
2023-03-23T18:11:10.388Z,48.42
2023-03-23T18:13:45.468Z,48.57
2023-03-23T18:16:33.632Z,48.57
2023-03-23T18:19:17.397Z,48.55
2023-03-23T18:21:59.503Z,48.64
2023-03-23T18:24:40.509Z,48.71
2023-03-23T18:27:22.489Z,49.05
2023-03-23T18:30:03.656Z,49.05
2023-03-23T18:32:46.360Z,49.08
2023-03-23T18:35:34.374Z,49.01
2023-03-23T18:38:15.483Z,49.16
2023-03-23T18:41:03.520Z,49.23
2023-03-23T18:43:38.862Z,49.26
2023-03-23T18:46:26.427Z,49.03
2023-03-23T18:49:00.897Z,49.07
2023-03-23T18:51:44.358Z,48.99
2023-03-23T18:54:19.492Z,48.98
2023-03-23T18:57:04.249Z,49.07
2023-03-23T18:59:47.354Z,49.27
2023-03-23T19:02:29.774Z,49.64
2023-03-23T19:05:11.921Z,49.76
2023-03-23T19:08:21.467Z,49.72
2023-03-23T19:11:15.504Z,49.83
2023-03-23T19:14:03.812Z,49.85
2023-03-23T19:16:45.688Z,50.01
2023-03-23T19:19:58.237Z,50.37
2023-03-23T19:22:34.649Z,50.23
2023-03-23T19:25:30.345Z,50.43
2023-03-23T19:31:24.440Z,50.56
2023-03-23T19:33:59.484Z,50.68
2023-03-23T19:36:54.324Z,51.51
2023-03-23T19:39:42.947Z,52.27
2023-03-23T19:42:38.353Z,52.69
2023-03-23T19:45:26.377Z,52.78
2023-03-23T19:48:10.078Z,53.18
2023-03-23T19:51:06.383Z,53.63
2023-03-23T19:53:56.637Z,54.30
2023-03-23T19:56:34.918Z,54.58
2023-03-23T19:59:23.790Z,55.26
2023-03-23T20:01:59.309Z,55.52
2023-03-23T20:04:48.447Z,55.73
2023-03-23T20:07:30.372Z,56.07
2023-03-23T20:10:25.769Z,56.63
2023-03-23T20:13:21.375Z,57.16
2023-03-23T20:16:09.477Z,57.49
2023-03-23T20:18:46.127Z,57.75
2023-03-23T20:21:35.933Z,57.93
2023-03-23T20:24:13.523Z,57.95
2023-03-23T20:27:03.184Z,57.76
2023-03-23T20:29:38.526Z,57.54
2023-03-23T20:32:26.446Z,57.58
2023-03-23T20:35:01.560Z,57.85
2023-03-23T20:37:49.330Z,57.94
2023-03-23T20:40:23.537Z,58.11
2023-03-23T20:43:12.489Z,58.53
2023-03-23T20:45:54.364Z,58.73
2023-03-23T20:48:50.443Z,58.77
2023-03-23T20:51:40.433Z,59.05
2023-03-23T20:54:22.433Z,58.99
2023-03-23T20:57:10.402Z,58.48
2023-03-23T20:59:45.476Z,57.86
2023-03-23T21:02:36.369Z,57.50
2023-03-23T21:05:18.363Z,56.88
2023-03-23T21:08:06.351Z,56.53
2023-03-23T21:10:48.330Z,56.32
2023-03-23T21:13:45.912Z,56.05
2023-03-23T21:16:33.351Z,55.85
2023-03-23T21:19:16.161Z,56.23
2023-03-23T21:21:57.425Z,56.27
2023-03-23T21:24:47.358Z,56.36
2023-03-23T21:27:28.595Z,56.34
2023-03-23T21:30:10.369Z,56.32
2023-03-23T21:32:51.666Z,56.69
2023-03-23T21:35:33.483Z,57.18
2023-03-23T21:38:15.531Z,57.50
2023-03-23T21:40:56.351Z,57.77
2023-03-23T21:43:38.381Z,58.17
2023-03-23T21:46:25.332Z,58.47
2023-03-23T21:49:06.601Z,58.08
2023-03-23T21:51:41.822Z,57.97
2023-03-23T21:54:29.397Z,57.84
2023-03-23T21:57:12.490Z,57.83
2023-03-23T21:59:53.750Z,57.86
2023-03-23T22:02:41.384Z,57.39
2023-03-23T22:05:16.167Z,57.25
2023-03-23T22:08:04.342Z,57.22
2023-03-23T22:10:42.698Z,57.12
2023-03-23T22:13:49.339Z,57.22
2023-03-23T22:16:32.389Z,57.16
2023-03-23T22:19:13.740Z,57.17
2023-03-23T22:21:55.313Z,57.31
2023-03-23T22:24:44.329Z,57.23
2023-03-23T22:27:25.331Z,57.10
2023-03-23T22:30:06.493Z,57.09
2023-03-23T22:32:47.374Z,57.02
2023-03-23T22:35:28.473Z,57.35
2023-03-23T22:38:10.350Z,57.63
2023-03-23T22:41:02.721Z,57.88
2023-03-23T22:43:45.355Z,58.30
2023-03-23T22:46:26.488Z,58.75
2023-03-23T22:49:07.339Z,59.01
2023-03-23T22:51:48.599Z,58.91
2023-03-23T22:54:30.344Z,58.91
2023-03-23T22:57:18.352Z,58.83
2023-03-23T22:59:52.756Z,58.52
2023-03-23T23:02:40.487Z,58.53
2023-03-23T23:05:16.355Z,58.50
2023-03-23T23:07:58.353Z,58.72
2023-03-23T23:10:33.501Z,58.72
2023-03-23T23:13:15.334Z,59.28
2023-03-23T23:16:05.377Z,59.49
2023-03-23T23:18:40.947Z,59.86
2023-03-23T23:21:32.368Z,59.95
2023-03-23T23:24:07.775Z,60.12
2023-03-23T23:26:55.910Z,60.16
2023-03-23T23:29:43.573Z,60.19
2023-03-23T23:32:18.695Z,60.09
2023-03-23T23:35:06.557Z,60.04
2023-03-23T23:37:41.633Z,60.27
2023-03-23T23:40:29.585Z,60.11
2023-03-23T23:43:11.582Z,59.96
2023-03-23T23:45:59.401Z,59.97
2023-03-23T23:48:35.090Z,60.15
2023-03-23T23:51:25.347Z,60.17
2023-03-23T23:54:01.973Z,60.14
2023-03-23T23:56:50.395Z,59.95
2023-03-23T23:59:32.330Z,59.77
